TAF and METAR

Could not understand the following METAR

YTEF 011300Z AUTO 31006KT 9999 // NCD 34/07 Q1008
No TAF available for Telfer Airport